Impacts TAF Board
For situational awareness. Not to be used for flight planning purposes.
IDs:

KFST - Fort Stockton/Pecos, TX, US

Issued at 1720 UTC 08 Aug 2020
Updated at 2115 UTC 08 Aug 2020
Potential Impact None Slight Moderate High
Time2053Z 08/22Z 08/23Z 09/00Z 09/01Z 09/02Z 09/03Z 09/04Z 09/05Z 09/06Z 09/07Z 09/08Z 09/09Z 09/10Z>>
Type OBS PRVL PRVL PRVL PRVL PRVL PRVL PRVL PRVL PRVL PRVL PRVL PRVL PRVL
VIS 10 >6 >6 >6 >6 >6 >6 >6 >6 >6 >6 >6 >6 >6
CIG -- -- -- -- -- -- -- -- -- -- -- -- -- --
Cover CLR FEW FEW FEW FEW FEW FEW FEW FEW SKC SKC SKC SKC SKC
FltCat VFR VFR VFR VFR VFR VFR VFR VFR VFR VFR VFR VFR VFR VFR
WX -- -- -- -- -- -- -- -- -- -- -- -- -- --
WDir 140 150 150 150 150 150 150 150 150 150 150 150 150 150
WSpd 12 14 14 14 14 14 14 14 14 10 10 10 10 10
WGst 21 20 20 20 20 20 20 20 20 -- -- -- -- --
Raw TAF
KFST 081720Z 0818/0918 15014G20KT P6SM FEW250
  FM090600 15010KT P6SM SKC


Raw METAR
KFST 082053Z AUTO 14012G21KT 10SM CLR 36/12 A3004 RMK AO2 SLP117 T03560122 56014
KFST 081953Z AUTO 14013G19KT 10SM CLR 36/13 A3006 RMK AO2 SLP122 T03560128
KFST 081853Z AUTO 13013G18KT 10SM CLR 35/13 A3007 RMK AO2 SLP126 T03500133

METAR Board
Radar Display
Forecast Discussion
For situational awareness. Not to be used for flight planning purposes.